sensor_id;sensor_type;location;lat;lon;timestamp;pressure;altitude;pressure_sealevel;temperature;humidity
12486;BME280;6307;46.804;11.580;2023-02-14T00:00:22;-20997.50;;;4.84;81.97
12486;BME280;6307;46.804;11.580;2023-02-14T00:02:49;-20994.50;;;4.74;82.85
12486;BME280;6307;46.804;11.580;2023-02-14T00:05:15;-20990.28;;;4.60;85.29
12486;BME280;6307;46.804;11.580;2023-02-14T00:07:41;-20997.06;;;4.83;83.20
12486;BME280;6307;46.804;11.580;2023-02-14T00:10:08;-20991.19;;;4.63;85.08
12486;BME280;6307;46.804;11.580;2023-02-14T00:12:35;-20994.06;;;4.73;82.94
12486;BME280;6307;46.804;11.580;2023-02-14T00:15:01;-20990.13;;;4.60;85.06
12486;BME280;6307;46.804;11.580;2023-02-14T00:17:45;-20986.69;;;4.48;85.33
12486;BME280;6307;46.804;11.580;2023-02-14T00:20:24;-20996.91;;;4.82;82.01
12486;BME280;6307;46.804;11.580;2023-02-14T00:22:52;-20999.94;;;4.92;80.36
12486;BME280;6307;46.804;11.580;2023-02-14T00:25:18;-20995.25;;;4.77;82.80
12486;BME280;6307;46.804;11.580;2023-02-14T00:27:44;-20994.34;;;4.74;80.22
12486;BME280;6307;46.804;11.580;2023-02-14T00:30:11;-20986.97;;;4.49;85.48
12486;BME280;6307;46.804;11.580;2023-02-14T00:32:39;-20994.06;;;4.73;82.39
12486;BME280;6307;46.804;11.580;2023-02-14T00:35:07;-20994.66;;;4.75;80.79
12486;BME280;6307;46.804;11.580;2023-02-14T00:37:34;-20987.44;;;4.51;84.67
12486;BME280;6307;46.804;11.580;2023-02-14T00:40:00;-20997.06;;;4.83;81.02
12486;BME280;6307;46.804;11.580;2023-02-14T00:42:26;-20995.09;;;4.76;81.45
12486;BME280;6307;46.804;11.580;2023-02-14T00:44:53;-20993.44;;;4.71;82.13
12486;BME280;6307;46.804;11.580;2023-02-14T00:47:19;-20993.44;;;4.71;80.65
12486;BME280;6307;46.804;11.580;2023-02-14T00:49:45;-20990.13;;;4.60;80.85
12486;BME280;6307;46.804;11.580;2023-02-14T00:52:11;-20984.72;;;4.42;83.59
12486;BME280;6307;46.804;11.580;2023-02-14T00:54:37;-20978.38;;;4.21;88.19
12486;BME280;6307;46.804;11.580;2023-02-14T00:57:03;-20983.50;;;4.38;83.31
12486;BME280;6307;46.804;11.580;2023-02-14T00:59:29;-20982.16;;;4.33;83.07
12486;BME280;6307;46.804;11.580;2023-02-14T01:01:55;-20978.09;;;4.20;89.12
12486;BME280;6307;46.804;11.580;2023-02-14T01:04:21;-20979.91;;;4.26;83.31
12486;BME280;6307;46.804;11.580;2023-02-14T01:06:47;-20979.13;;;4.23;86.95
12486;BME280;6307;46.804;11.580;2023-02-14T01:09:13;-20986.53;;;4.48;83.33
12486;BME280;6307;46.804;11.580;2023-02-14T01:11:39;-20995.84;;;4.79;80.51
12486;BME280;6307;46.804;11.580;2023-02-14T01:14:06;-20990.75;;;4.62;83.25
12486;BME280;6307;46.804;11.580;2023-02-14T01:16:32;-21002.34;;;5.00;76.65
12486;BME280;6307;46.804;11.580;2023-02-14T01:18:59;-20999.03;;;4.89;81.67
12486;BME280;6307;46.804;11.580;2023-02-14T01:21:31;-20994.81;;;4.75;80.91
12486;BME280;6307;46.804;11.580;2023-02-14T01:24:01;-20999.03;;;4.89;78.41
12486;BME280;6307;46.804;11.580;2023-02-14T01:26:29;-20996.47;;;4.81;78.60
12486;BME280;6307;46.804;11.580;2023-02-14T01:28:55;-20984.13;;;4.40;83.56
12486;BME280;6307;46.804;11.580;2023-02-14T01:31:25;-20989.69;;;4.58;81.65
12486;BME280;6307;46.804;11.580;2023-02-14T01:33:53;-20986.22;;;4.47;85.71
12486;BME280;6307;46.804;11.580;2023-02-14T01:38:54;-20991.34;;;4.64;83.59
12486;BME280;6307;46.804;11.580;2023-02-14T01:41:23;-20985.16;;;4.43;84.72
12486;BME280;6307;46.804;11.580;2023-02-14T01:46:44;-20977.34;;;4.17;85.74
12486;BME280;6307;46.804;11.580;2023-02-14T01:49:17;-20981.09;;;4.30;86.54
12486;BME280;6307;46.804;11.580;2023-02-14T01:52:17;-20975.38;;;4.11;88.10
12486;BME280;6307;46.804;11.580;2023-02-14T01:55:02;-20981.56;;;4.31;84.30
12486;BME280;6307;46.804;11.580;2023-02-14T01:57:39;-20984.41;;;4.41;88.64
12486;BME280;6307;46.804;11.580;2023-02-14T02:00:12;-20980.50;;;4.28;84.17
12486;BME280;6307;46.804;11.580;2023-02-14T02:02:58;-20980.34;;;4.27;87.04
12486;BME280;6307;46.804;11.580;2023-02-14T02:05:27;-20981.25;;;4.30;88.40
12486;BME280;6307;46.804;11.580;2023-02-14T02:07:56;-20993.59;;;4.71;82.58
12486;BME280;6307;46.804;11.580;2023-02-14T02:10:24;-20991.94;;;4.66;80.64
12486;BME280;6307;46.804;11.580;2023-02-14T02:12:52;-20990.75;;;4.62;87.75
12486;BME280;6307;46.804;11.580;2023-02-14T02:15:19;-20994.22;;;4.73;78.10
12486;BME280;6307;46.804;11.580;2023-02-14T02:17:56;-20992.53;;;4.68;76.77
12486;BME280;6307;46.804;11.580;2023-02-14T02:47:21;-20980.34;;;4.27;79.70
12486;BME280;6307;46.804;11.580;2023-02-14T02:50:28;-20969.66;;;3.92;84.52
12486;BME280;6307;46.804;11.580;2023-02-14T02:53:46;-20972.50;;;4.01;83.60
12486;BME280;6307;46.804;11.580;2023-02-14T02:56:24;-20976.88;;;4.16;80.85
12486;BME280;6307;46.804;11.580;2023-02-14T02:59:23;-20968.00;;;3.86;85.79
12486;BME280;6307;46.804;11.580;2023-02-14T03:02:06;-20969.34;;;3.91;82.66
12486;BME280;6307;46.804;11.580;2023-02-14T03:04:43;-20961.81;;;3.66;87.09
12486;BME280;6307;46.804;11.580;2023-02-14T03:07:33;-20966.63;;;3.82;85.40
12486;BME280;6307;46.804;11.580;2023-02-14T03:22:26;-20968.75;;;3.89;84.82
12486;BME280;6307;46.804;11.580;2023-02-14T03:25:04;-20969.50;;;3.91;83.85
12486;BME280;6307;46.804;11.580;2023-02-14T03:27:49;-20966.63;;;3.82;85.07
12486;BME280;6307;46.804;11.580;2023-02-14T03:30:43;-20961.22;;;3.64;86.93
12486;BME280;6307;46.804;11.580;2023-02-14T03:33:35;-20969.78;;;3.92;83.51
12486;BME280;6307;46.804;11.580;2023-02-14T03:36:26;-20966.63;;;3.82;83.90
12486;BME280;6307;46.804;11.580;2023-02-14T03:39:16;-20964.22;;;3.74;83.48
12486;BME280;6307;46.804;11.580;2023-02-14T03:42:24;-20975.38;;;4.11;80.11
12486;BME280;6307;46.804;11.580;2023-02-14T03:44:55;-20972.50;;;4.01;81.01
12486;BME280;6307;46.804;11.580;2023-02-14T03:47:28;-20968.91;;;3.89;82.36
12486;BME280;6307;46.804;11.580;2023-02-14T03:50:09;-20971.00;;;3.96;81.19
12486;BME280;6307;46.804;11.580;2023-02-14T03:52:40;-20963.31;;;3.71;83.33
12486;BME280;6307;46.804;11.580;2023-02-14T03:55:09;-20967.25;;;3.84;82.72
12486;BME280;6307;46.804;11.580;2023-02-14T03:57:52;-20959.09;;;3.57;85.33
12486;BME280;6307;46.804;11.580;2023-02-14T04:00:29;-20959.41;;;3.58;85.23
12486;BME280;6307;46.804;11.580;2023-02-14T04:03:02;-20964.97;;;3.76;83.67
12486;BME280;6307;46.804;11.580;2023-02-14T04:05:36;-20970.72;;;3.95;81.36
12486;BME280;6307;46.804;11.580;2023-02-14T04:08:08;-20969.66;;;3.92;80.60
12486;BME280;6307;46.804;11.580;2023-02-14T04:10:36;-20961.97;;;3.66;83.53
12486;BME280;6307;46.804;11.580;2023-02-14T04:13:04;-20965.13;;;3.77;82.26
12486;BME280;6307;46.804;11.580;2023-02-14T04:15:30;-20962.41;;;3.68;83.59
12486;BME280;6307;46.804;11.580;2023-02-14T04:17:56;-20968.00;;;3.86;81.33
12486;BME280;6307;46.804;11.580;2023-02-14T04:20:41;-20968.00;;;3.86;81.85
12486;BME280;6307;46.804;11.580;2023-02-14T04:23:07;-20961.38;;;3.64;82.75
12486;BME280;6307;46.804;11.580;2023-02-14T04:25:33;-20957.75;;;3.52;84.18
12486;BME280;6307;46.804;11.580;2023-02-14T04:27:59;-20958.66;;;3.55;83.62
12486;BME280;6307;46.804;11.580;2023-02-14T04:30:25;-20961.97;;;3.66;82.39
12486;BME280;6307;46.804;11.580;2023-02-14T04:32:51;-20962.56;;;3.68;81.72
12486;BME280;6307;46.804;11.580;2023-02-14T04:35:17;-20961.50;;;3.65;81.77
12486;BME280;6307;46.804;11.580;2023-02-14T04:37:43;-20963.31;;;3.71;81.37
12486;BME280;6307;46.804;11.580;2023-02-14T04:40:10;-20965.13;;;3.77;80.08
12486;BME280;6307;46.804;11.580;2023-02-14T04:42:40;-20957.59;;;3.52;82.74
12486;BME280;6307;46.804;11.580;2023-02-14T04:45:07;-20961.81;;;3.66;81.14
12486;BME280;6307;46.804;11.580;2023-02-14T04:47:33;-20967.25;;;3.84;79.86
12486;BME280;6307;46.804;11.580;2023-02-14T04:49:59;-20960.91;;;3.63;80.35
12486;BME280;6307;46.804;11.580;2023-02-14T04:52:26;-20966.50;;;3.81;84.19
12486;BME280;6307;46.804;11.580;2023-02-14T04:54:52;-20970.84;;;3.96;78.88
12486;BME280;6307;46.804;11.580;2023-02-14T04:57:18;-20962.41;;;3.68;80.03
12486;BME280;6307;46.804;11.580;2023-02-14T04:59:44;-20960.31;;;3.61;81.78
12486;BME280;6307;46.804;11.580;2023-02-14T05:02:10;-20963.94;;;3.73;82.94
12486;BME280;6307;46.804;11.580;2023-02-14T05:04:36;-20964.53;;;3.75;84.91
12486;BME280;6307;46.804;11.580;2023-02-14T05:07:02;-20970.56;;;3.95;87.00
12486;BME280;6307;46.804;11.580;2023-02-14T05:09:29;-20965.59;;;3.78;81.45
12486;BME280;6307;46.804;11.580;2023-02-14T05:11:55;-20964.81;;;3.76;79.48
12486;BME280;6307;46.804;11.580;2023-02-14T05:14:21;-20969.94;;;3.93;84.35
12486;BME280;6307;46.804;11.580;2023-02-14T05:16:47;-20964.06;;;3.73;80.16
12486;BME280;6307;46.804;11.580;2023-02-14T05:19:13;-20967.25;;;3.84;80.89
12486;BME280;6307;46.804;11.580;2023-02-14T05:21:39;-20967.25;;;3.84;82.45
12486;BME280;6307;46.804;11.580;2023-02-14T05:24:06;-20973.41;;;4.04;84.15
12486;BME280;6307;46.804;11.580;2023-02-14T05:26:32;-20973.41;;;4.04;75.17
12486;BME280;6307;46.804;11.580;2023-02-14T05:28:58;-20969.66;;;3.92;82.36
12486;BME280;6307;46.804;11.580;2023-02-14T05:31:24;-20969.34;;;3.91;79.31
12486;BME280;6307;46.804;11.580;2023-02-14T05:33:50;-20974.78;;;4.09;75.32
12486;BME280;6307;46.804;11.580;2023-02-14T05:36:16;-20968.44;;;3.88;77.53
12486;BME280;6307;46.804;11.580;2023-02-14T05:38:42;-20967.84;;;3.86;76.85
12486;BME280;6307;46.804;11.580;2023-02-14T05:41:09;-20971.47;;;3.98;77.71
12486;BME280;6307;46.804;11.580;2023-02-14T05:43:35;-20968.16;;;3.87;78.12
12486;BME280;6307;46.804;11.580;2023-02-14T05:46:01;-20972.66;;;4.02;79.21
12486;BME280;6307;46.804;11.580;2023-02-14T05:48:27;-20972.06;;;4.00;77.18
12486;BME280;6307;46.804;11.580;2023-02-14T05:50:53;-20962.56;;;3.68;80.37
12486;BME280;6307;46.804;11.580;2023-02-14T05:53:20;-20968.75;;;3.89;76.80
12486;BME280;6307;46.804;11.580;2023-02-14T05:55:46;-20971.16;;;3.97;75.79
12486;BME280;6307;46.804;11.580;2023-02-14T05:58:12;-20964.69;;;3.75;76.14
12486;BME280;6307;46.804;11.580;2023-02-14T06:00:39;-20961.50;;;3.65;77.47
12486;BME280;6307;46.804;11.580;2023-02-14T06:03:05;-20967.25;;;3.84;76.13
12486;BME280;6307;46.804;11.580;2023-02-14T06:05:31;-20962.72;;;3.69;76.40
12486;BME280;6307;46.804;11.580;2023-02-14T06:07:57;-20965.72;;;3.79;75.81
12486;BME280;6307;46.804;11.580;2023-02-14T06:10:25;-20962.88;;;3.69;76.70
12486;BME280;6307;46.804;11.580;2023-02-14T06:12:52;-20969.94;;;3.93;73.88
12486;BME280;6307;46.804;11.580;2023-02-14T06:15:19;-20960.47;;;3.61;77.19
12486;BME280;6307;46.804;11.580;2023-02-14T06:17:53;-20972.81;;;4.02;71.90
12486;BME280;6307;46.804;11.580;2023-02-14T06:20:22;-20967.09;;;3.83;74.08
12486;BME280;6307;46.804;11.580;2023-02-14T06:22:49;-20961.50;;;3.65;76.82
12486;BME280;6307;46.804;11.580;2023-02-14T06:25:16;-20962.41;;;3.68;75.53
12486;BME280;6307;46.804;11.580;2023-02-14T06:27:42;-20969.66;;;3.92;72.31
12486;BME280;6307;46.804;11.580;2023-02-14T06:30:09;-20977.03;;;4.16;70.33
12486;BME280;6307;46.804;11.580;2023-02-14T06:32:36;-20977.47;;;4.18;70.74
12486;BME280;6307;46.804;11.580;2023-02-14T06:35:03;-20975.81;;;4.12;70.13
12486;BME280;6307;46.804;11.580;2023-02-14T06:37:29;-20973.13;;;4.03;70.94
12486;BME280;6307;46.804;11.580;2023-02-14T06:39:55;-20976.59;;;4.15;69.68
12486;BME280;6307;46.804;11.580;2023-02-14T06:42:21;-20976.88;;;4.16;69.52
12486;BME280;6307;46.804;11.580;2023-02-14T06:44:48;-20972.97;;;4.03;69.99
12486;BME280;6307;46.804;11.580;2023-02-14T06:47:15;-20981.69;;;4.32;67.66
12486;BME280;6307;46.804;11.580;2023-02-14T06:49:41;-20979.00;;;4.23;68.99
12486;BME280;6307;46.804;11.580;2023-02-14T06:52:07;-20973.41;;;4.04;68.72
12486;BME280;6307;46.804;11.580;2023-02-14T06:54:33;-20975.38;;;4.11;68.82
12486;BME280;6307;46.804;11.580;2023-02-14T06:56:59;-20969.50;;;3.91;70.67
12486;BME280;6307;46.804;11.580;2023-02-14T06:59:25;-20979.91;;;4.26;66.85
12486;BME280;6307;46.804;11.580;2023-02-14T07:01:51;-20979.00;;;4.23;64.94
12486;BME280;6307;46.804;11.580;2023-02-14T07:04:17;-20971.75;;;3.99;68.20
12486;BME280;6307;46.804;11.580;2023-02-14T07:06:44;-20974.47;;;4.08;68.17
12486;BME280;6307;46.804;11.580;2023-02-14T07:09:11;-20969.19;;;3.90;67.62
12486;BME280;6307;46.804;11.580;2023-02-14T07:11:41;-20984.56;;;4.41;65.40
12486;BME280;6307;46.804;11.580;2023-02-14T07:14:09;-20979.91;;;4.26;66.05
12486;BME280;6307;46.804;11.580;2023-02-14T07:16:36;-20979.13;;;4.23;66.37
12486;BME280;6307;46.804;11.580;2023-02-14T07:19:02;-20977.94;;;4.19;66.24
12486;BME280;6307;46.804;11.580;2023-02-14T07:21:28;-20976.59;;;4.15;68.11
12486;BME280;6307;46.804;11.580;2023-02-14T07:23:54;-20977.03;;;4.16;67.53
12486;BME280;6307;46.804;11.580;2023-02-14T07:26:20;-20984.41;;;4.41;67.01
12486;BME280;6307;46.804;11.580;2023-02-14T07:28:47;-20985.31;;;4.44;64.36
12486;BME280;6307;46.804;11.580;2023-02-14T07:31:14;-20981.09;;;4.30;67.13
12486;BME280;6307;46.804;11.580;2023-02-14T07:33:40;-20980.81;;;4.29;68.02
12486;BME280;6307;46.804;11.580;2023-02-14T07:36:07;-20986.38;;;4.47;65.99
12486;BME280;6307;46.804;11.580;2023-02-14T07:38:35;-20979.59;;;4.25;65.46
12486;BME280;6307;46.804;11.580;2023-02-14T07:41:01;-20991.19;;;4.63;63.56
12486;BME280;6307;46.804;11.580;2023-02-14T07:43:28;-20997.50;;;4.84;61.25
12486;BME280;6307;46.804;11.580;2023-02-14T07:45:54;-20998.88;;;4.89;60.61
12486;BME280;6307;46.804;11.580;2023-02-14T07:48:20;-20995.09;;;4.76;60.99
12486;BME280;6307;46.804;11.580;2023-02-14T07:50:47;-20994.34;;;4.74;63.02
12486;BME280;6307;46.804;11.580;2023-02-14T07:53:13;-20993.59;;;4.71;62.64
12486;BME280;6307;46.804;11.580;2023-02-14T07:55:39;-20994.06;;;4.73;62.94
12486;BME280;6307;46.804;11.580;2023-02-14T07:58:06;-20988.47;;;4.54;63.31
12486;BME280;6307;46.804;11.580;2023-02-14T08:00:32;-20996.00;;;4.79;75.38
12486;BME280;6307;46.804;11.580;2023-02-14T08:02:58;-20995.25;;;4.77;65.61
12486;BME280;6307;46.804;11.580;2023-02-14T08:05:24;-21001.44;;;4.97;59.78
12486;BME280;6307;46.804;11.580;2023-02-14T08:07:50;-20999.78;;;4.92;62.80
12486;BME280;6307;46.804;11.580;2023-02-14T08:10:16;-20998.88;;;4.89;60.66
12486;BME280;6307;46.804;11.580;2023-02-14T08:12:43;-20998.88;;;4.89;60.80
12486;BME280;6307;46.804;11.580;2023-02-14T08:15:26;-21000.06;;;4.93;59.04
12486;BME280;6307;46.804;11.580;2023-02-14T08:18:13;-21003.25;;;5.03;60.03
12486;BME280;6307;46.804;11.580;2023-02-14T08:20:42;-21000.53;;;4.94;57.42
12486;BME280;6307;46.804;11.580;2023-02-14T08:23:14;-21009.25;;;5.23;56.38
12486;BME280;6307;46.804;11.580;2023-02-14T08:25:41;-21013.63;;;5.38;55.20
12486;BME280;6307;46.804;11.580;2023-02-14T08:28:08;-21019.03;;;5.56;56.92
12486;BME280;6307;46.804;11.580;2023-02-14T08:30:35;-21008.81;;;5.22;58.23
12486;BME280;6307;46.804;11.580;2023-02-14T08:33:02;-21015.88;;;5.45;57.67
12486;BME280;6307;46.804;11.580;2023-02-14T08:35:29;-21016.19;;;5.46;57.10
12486;BME280;6307;46.804;11.580;2023-02-14T08:37:55;-21014.53;;;5.41;57.58
12486;BME280;6307;46.804;11.580;2023-02-14T08:40:22;-21017.09;;;5.49;53.54
12486;BME280;6307;46.804;11.580;2023-02-14T08:42:48;-21023.09;;;5.69;53.06
12486;BME280;6307;46.804;11.580;2023-02-14T08:45:14;-21028.09;;;5.86;52.21
12486;BME280;6307;46.804;11.580;2023-02-14T08:47:40;-21030.03;;;5.92;53.12
12486;BME280;6307;46.804;11.580;2023-02-14T08:50:11;-21030.03;;;5.92;52.16
12486;BME280;6307;46.804;11.580;2023-02-14T08:52:40;-21035.75;;;6.11;51.37
12486;BME280;6307;46.804;11.580;2023-02-14T08:55:08;-21034.25;;;6.06;50.64
12486;BME280;6307;46.804;11.580;2023-02-14T08:57:35;-21042.22;;;6.33;49.88
12486;BME280;6307;46.804;11.580;2023-02-14T09:00:02;-21042.66;;;6.34;49.95
12486;BME280;6307;46.804;11.580;2023-02-14T09:02:29;-21041.63;;;6.31;49.29
12486;BME280;6307;46.804;11.580;2023-02-14T09:04:55;-21040.88;;;6.28;49.17
12486;BME280;6307;46.804;11.580;2023-02-14T09:07:23;-21044.63;;;6.41;49.10
12486;BME280;6307;46.804;11.580;2023-02-14T09:09:49;-21046.44;;;6.47;49.92
12486;BME280;6307;46.804;11.580;2023-02-14T09:12:15;-21047.78;;;6.51;49.21
12486;BME280;6307;46.804;11.580;2023-02-14T09:14:42;-21056.34;;;6.80;47.81
12486;BME280;6307;46.804;11.580;2023-02-14T09:17:12;-21056.06;;;6.79;47.57
12486;BME280;6307;46.804;11.580;2023-02-14T09:19:40;-21057.25;;;6.83;47.43
12486;BME280;6307;46.804;11.580;2023-02-14T09:22:07;-21055.91;;;6.78;47.56
12486;BME280;6307;46.804;11.580;2023-02-14T09:24:36;-21063.88;;;7.05;47.07
12486;BME280;6307;46.804;11.580;2023-02-14T09:27:04;-21068.53;;;7.20;47.29
12486;BME280;6307;46.804;11.580;2023-02-14T09:29:30;-21070.94;;;7.28;47.23
12486;BME280;6307;46.804;11.580;2023-02-14T09:31:59;-21067.34;;;7.16;48.56
12486;BME280;6307;46.804;11.580;2023-02-14T09:34:27;-21065.22;;;7.09;46.45
12486;BME280;6307;46.804;11.580;2023-02-14T09:37:12;-21073.34;;;7.36;46.07
12486;BME280;6307;46.804;11.580;2023-02-14T09:39:58;-21067.19;;;7.16;49.73
12486;BME280;6307;46.804;11.580;2023-02-14T09:42:40;-21068.25;;;7.19;49.46
12486;BME280;6307;46.804;11.580;2023-02-14T09:45:31;-21073.81;;;7.38;46.32
12486;BME280;6307;46.804;11.580;2023-02-14T09:50:43;-21074.84;;;7.41;46.11
12486;BME280;6307;46.804;11.580;2023-02-14T09:55:55;-21072.59;;;7.33;47.46
12486;BME280;6307;46.804;11.580;2023-02-14T09:58:35;-21078.75;;;7.54;47.36
12486;BME280;6307;46.804;11.580;2023-02-14T10:01:24;-21083.88;;;7.71;44.91
12486;BME280;6307;46.804;11.580;2023-02-14T10:04:16;-21092.88;;;8.01;47.17
12486;BME280;6307;46.804;11.580;2023-02-14T10:12:55;-21094.09;;;8.05;46.19
12486;BME280;6307;46.804;11.580;2023-02-14T10:15:43;-21096.03;;;8.11;43.27
12486;BME280;6307;46.804;11.580;2023-02-14T10:20:57;-21107.16;;;8.48;43.58
12486;BME280;6307;46.804;11.580;2023-02-14T10:23:31;-21105.22;;;8.42;41.81
12486;BME280;6307;46.804;11.580;2023-02-14T10:28:48;-21123.06;;;9.01;40.71
12486;BME280;6307;46.804;11.580;2023-02-14T10:31:26;-21122.94;;;9.01;40.62
12486;BME280;6307;46.804;11.580;2023-02-14T10:40:20;-21131.34;;;9.29;39.49
12486;BME280;6307;46.804;11.580;2023-02-14T10:43:35;-21131.63;;;9.30;39.31
12486;BME280;6307;46.804;11.580;2023-02-14T10:52:24;-21135.25;;;9.42;38.32
12486;BME280;6307;46.804;11.580;2023-02-14T10:55:04;-21140.03;;;9.58;38.82
12486;BME280;6307;46.804;11.580;2023-02-14T10:57:52;-21141.53;;;9.63;40.65
12486;BME280;6307;46.804;11.580;2023-02-14T11:00:31;-21136.13;;;9.45;40.14
12486;BME280;6307;46.804;11.580;2023-02-14T11:03:07;-21138.22;;;9.52;38.77
12486;BME280;6307;46.804;11.580;2023-02-14T11:05:54;-21145.00;;;9.74;39.26
12486;BME280;6307;46.804;11.580;2023-02-14T11:08:27;-21145.28;;;9.75;38.96
12486;BME280;6307;46.804;11.580;2023-02-14T11:11:15;-21143.03;;;9.68;39.05
12486;BME280;6307;46.804;11.580;2023-02-14T11:16:43;-21149.03;;;9.88;38.29
12486;BME280;6307;46.804;11.580;2023-02-14T11:19:23;-21155.66;;;10.10;38.26
12486;BME280;6307;46.804;11.580;2023-02-14T11:21:56;-21159.41;;;10.22;38.31
12486;BME280;6307;46.804;11.580;2023-02-14T11:24:37;-21159.69;;;10.23;37.51
12486;BME280;6307;46.804;11.580;2023-02-14T11:32:33;-21169.75;;;10.57;35.87
12486;BME280;6307;46.804;11.580;2023-02-14T11:35:07;-21171.41;;;10.62;35.41
12486;BME280;6307;46.804;11.580;2023-02-14T11:37:49;-21172.28;;;10.65;36.00
12486;BME280;6307;46.804;11.580;2023-02-14T11:40:36;-21176.63;;;10.80;35.71
12486;BME280;6307;46.804;11.580;2023-02-14T11:45:40;-21178.28;;;10.85;37.08
12486;BME280;6307;46.804;11.580;2023-02-14T11:50:42;-21179.63;;;10.90;36.17
12486;BME280;6307;46.804;11.580;2023-02-14T11:53:23;-21180.09;;;10.91;35.90
12486;BME280;6307;46.804;11.580;2023-02-14T11:55:53;-21185.50;;;11.09;35.24
12486;BME280;6307;46.804;11.580;2023-02-14T12:01:35;-21191.31;;;11.29;34.05
12486;BME280;6307;46.804;11.580;2023-02-14T12:04:11;-21193.44;;;11.36;35.52
12486;BME280;6307;46.804;11.580;2023-02-14T12:06:40;-21194.03;;;11.38;34.35
12486;BME280;6307;46.804;11.580;2023-02-14T12:11:59;-21195.97;;;11.44;35.37
12486;BME280;6307;46.804;11.580;2023-02-14T12:14:31;-21196.72;;;11.47;35.71
12486;BME280;6307;46.804;11.580;2023-02-14T12:17:14;-21197.19;;;11.48;35.49
12486;BME280;6307;46.804;11.580;2023-02-14T12:22:18;-21201.38;;;11.62;34.92
12486;BME280;6307;46.804;11.580;2023-02-14T12:24:52;-21204.38;;;11.72;36.19
12486;BME280;6307;46.804;11.580;2023-02-14T12:27:56;-21202.41;;;11.66;36.14
12486;BME280;6307;46.804;11.580;2023-02-14T12:30:33;-21201.06;;;11.61;35.62
12486;BME280;6307;46.804;11.580;2023-02-14T12:33:00;-21203.31;;;11.69;34.71
12486;BME280;6307;46.804;11.580;2023-02-14T12:35:38;-21205.56;;;11.76;35.46
12486;BME280;6307;46.804;11.580;2023-02-14T12:41:36;-21210.97;;;11.94;34.34
12486;BME280;6307;46.804;11.580;2023-02-14T12:44:43;-21213.81;;;12.04;34.05
12486;BME280;6307;46.804;11.580;2023-02-14T12:48:03;-21214.56;;;12.06;34.27
12486;BME280;6307;46.804;11.580;2023-02-14T13:02:48;-21217.72;;;12.17;33.74
12486;BME280;6307;46.804;11.580;2023-02-14T13:05:52;-21218.75;;;12.20;34.60
12486;BME280;6307;46.804;11.580;2023-02-14T13:15:10;-21208.72;;;11.87;36.02
12486;BME280;6307;46.804;11.580;2023-02-14T13:17:46;-21208.88;;;11.87;36.87
12486;BME280;6307;46.804;11.580;2023-02-14T13:20:50;-21207.06;;;11.81;36.30
12486;BME280;6307;46.804;11.580;2023-02-14T13:26:26;-21209.31;;;11.89;35.83
12486;BME280;6307;46.804;11.580;2023-02-14T13:29:01;-21211.88;;;11.97;36.39
12486;BME280;6307;46.804;11.580;2023-02-14T13:31:29;-21213.06;;;12.01;35.61
12486;BME280;6307;46.804;11.580;2023-02-14T13:36:54;-21213.81;;;12.04;35.18
12486;BME280;6307;46.804;11.580;2023-02-14T13:39:34;-21214.56;;;12.06;35.57
12486;BME280;6307;46.804;11.580;2023-02-14T13:42:05;-21214.41;;;12.06;35.75
12486;BME280;6307;46.804;11.580;2023-02-14T13:44:47;-21212.31;;;11.99;36.31
12486;BME280;6307;46.804;11.580;2023-02-14T13:47:19;-21212.47;;;11.99;35.76
12486;BME280;6307;46.804;11.580;2023-02-14T13:49:54;-21211.41;;;11.96;36.30
12486;BME280;6307;46.804;11.580;2023-02-14T13:55:34;-21202.72;;;11.67;37.14
12486;BME280;6307;46.804;11.580;2023-02-14T13:58:17;-21197.78;;;11.50;36.63
12486;BME280;6307;46.804;11.580;2023-02-14T14:00:47;-21198.22;;;11.52;35.63
12486;BME280;6307;46.804;11.580;2023-02-14T14:06:29;-21200.19;;;11.58;36.54
12486;BME280;6307;46.804;11.580;2023-02-14T14:17:41;-21188.19;;;11.18;37.66
12486;BME280;6307;46.804;11.580;2023-02-14T14:22:57;-21182.19;;;10.98;38.01
12486;BME280;6307;46.804;11.580;2023-02-14T14:25:33;-21179.19;;;10.88;38.55
12486;BME280;6307;46.804;11.580;2023-02-14T14:28:24;-21176.94;;;10.81;38.87
12486;BME280;6307;46.804;11.580;2023-02-14T14:30:53;-21174.09;;;10.71;39.59
12486;BME280;6307;46.804;11.580;2023-02-14T14:33:55;-21169.44;;;10.56;40.31
12486;BME280;6307;46.804;11.580;2023-02-14T14:36:22;-21174.09;;;10.71;38.39
12486;BME280;6307;46.804;11.580;2023-02-14T14:38:52;-21175.28;;;10.75;37.99
12486;BME280;6307;46.804;11.580;2023-02-14T14:41:24;-21171.41;;;10.62;39.33
12486;BME280;6307;46.804;11.580;2023-02-14T14:43:53;-21167.78;;;10.50;39.60
12486;BME280;6307;46.804;11.580;2023-02-14T14:46:19;-21165.53;;;10.43;38.87
12486;BME280;6307;46.804;11.580;2023-02-14T14:48:50;-21159.25;;;10.22;40.70
12486;BME280;6307;46.804;11.580;2023-02-14T14:51:23;-21156.69;;;10.13;41.32
12486;BME280;6307;46.804;11.580;2023-02-14T14:54:00;-21152.63;;;10.00;41.03
12486;BME280;6307;46.804;11.580;2023-02-14T14:59:30;-21156.53;;;10.13;41.78
12486;BME280;6307;46.804;11.580;2023-02-14T15:02:24;-21161.03;;;10.28;41.45
12486;BME280;6307;46.804;11.580;2023-02-14T15:04:51;-21158.50;;;10.19;41.77
12486;BME280;6307;46.804;11.580;2023-02-14T15:07:26;-21154.59;;;10.06;42.90
12486;BME280;6307;46.804;11.580;2023-02-14T15:09:58;-21153.38;;;10.02;41.42
12486;BME280;6307;46.804;11.580;2023-02-14T15:12:24;-21159.69;;;10.23;41.08
12486;BME280;6307;46.804;11.580;2023-02-14T15:15:15;-21158.50;;;10.19;41.46
12486;BME280;6307;46.804;11.580;2023-02-14T15:17:44;-21158.94;;;10.21;41.37
12486;BME280;6307;46.804;11.580;2023-02-14T15:20:17;-21158.94;;;10.21;41.37
12486;BME280;6307;46.804;11.580;2023-02-14T15:22:48;-21157.75;;;10.17;40.42
12486;BME280;6307;46.804;11.580;2023-02-14T15:25:19;-21152.94;;;10.01;41.82
12486;BME280;6307;46.804;11.580;2023-02-14T15:27:48;-21146.63;;;9.80;41.50
12486;BME280;6307;46.804;11.580;2023-02-14T15:30:30;-21142.88;;;9.67;42.07
12486;BME280;6307;46.804;11.580;2023-02-14T15:33:03;-21136.13;;;9.45;42.92
12486;BME280;6307;46.804;11.580;2023-02-14T15:35:32;-21134.19;;;9.38;44.17
12486;BME280;6307;46.804;11.580;2023-02-14T15:38:03;-21135.69;;;9.43;42.96
12486;BME280;6307;46.804;11.580;2023-02-14T15:40:32;-21137.19;;;9.48;43.02
12486;BME280;6307;46.804;11.580;2023-02-14T15:43:13;-21142.88;;;9.67;41.10
12486;BME280;6307;46.804;11.580;2023-02-14T15:45:40;-21141.25;;;9.62;42.97
12486;BME280;6307;46.804;11.580;2023-02-14T15:48:16;-21140.19;;;9.58;41.96